sensor_id;sensor_type;location;lat;lon;timestamp;pressure;altitude;pressure_sealevel;temperature;humidity
76590;BME280;65471;55.908;37.880;2023-03-23T00:02:30;99542.91;;;4.93;65.21
76590;BME280;65471;55.908;37.880;2023-03-23T00:05:02;99545.84;;;4.98;64.80
76590;BME280;65471;55.908;37.880;2023-03-23T00:07:29;99535.09;;;4.91;65.13
76590;BME280;65471;55.908;37.880;2023-03-23T00:09:55;99548.50;;;4.98;64.97
76590;BME280;65471;55.908;37.880;2023-03-23T00:12:22;99543.78;;;5.00;64.66
76590;BME280;65471;55.908;37.880;2023-03-23T00:14:55;99538.03;;;5.03;64.65
76590;BME280;65471;55.908;37.880;2023-03-23T00:17:21;99529.75;;;4.98;64.36
76590;BME280;65471;55.908;37.880;2023-03-23T00:19:49;99523.78;;;5.03;64.59
76590;BME280;65471;55.908;37.880;2023-03-23T00:22:16;99525.25;;;5.05;64.91
76590;BME280;65471;55.908;37.880;2023-03-23T00:24:42;99527.94;;;5.05;64.60
76590;BME280;65471;55.908;37.880;2023-03-23T00:27:09;99525.84;;;5.07;64.62
76590;BME280;65471;55.908;37.880;2023-03-23T00:29:38;99528.53;;;5.07;64.83
76590;BME280;65471;55.908;37.880;2023-03-23T00:32:05;99526.69;;;5.08;64.86
76590;BME280;65471;55.908;37.880;2023-03-23T00:34:31;99524.44;;;5.11;64.48
76590;BME280;65471;55.908;37.880;2023-03-23T00:36:59;99528.16;;;5.10;64.58
76590;BME280;65471;55.908;37.880;2023-03-23T00:39:26;99523.81;;;5.09;64.39
76590;BME280;65471;55.908;37.880;2023-03-23T00:41:53;99505.44;;;4.99;64.70
76590;BME280;65471;55.908;37.880;2023-03-23T00:44:20;99514.28;;;5.00;64.49
76590;BME280;65471;55.908;37.880;2023-03-23T00:46:49;99529.19;;;5.09;64.35
76590;BME280;65471;55.908;37.880;2023-03-23T00:49:20;99519.88;;;5.05;64.43
76590;BME280;65471;55.908;37.880;2023-03-23T00:51:50;99521.09;;;5.03;64.94
76590;BME280;65471;55.908;37.880;2023-03-23T00:54:16;99517.00;;;5.07;65.11
76590;BME280;65471;55.908;37.880;2023-03-23T00:56:41;99509.78;;;5.07;64.81
76590;BME280;65471;55.908;37.880;2023-03-23T00:59:07;99505.88;;;5.10;64.73
76590;BME280;65471;55.908;37.880;2023-03-23T01:01:33;99510.41;;;5.09;64.74
76590;BME280;65471;55.908;37.880;2023-03-23T01:03:59;99512.47;;;5.07;64.80
76590;BME280;65471;55.908;37.880;2023-03-23T01:06:33;99505.47;;;5.06;64.60
76590;BME280;65471;55.908;37.880;2023-03-23T01:09:00;99503.59;;;5.07;64.88
76590;BME280;65471;55.908;37.880;2023-03-23T01:11:26;99506.09;;;5.08;64.76
76590;BME280;65471;55.908;37.880;2023-03-23T01:13:51;99500.31;;;5.11;64.67
76590;BME280;65471;55.908;37.880;2023-03-23T01:16:17;99505.47;;;5.13;64.66
76590;BME280;65471;55.908;37.880;2023-03-23T01:18:43;99499.91;;;5.14;64.65
76590;BME280;65471;55.908;37.880;2023-03-23T01:21:13;99506.91;;;5.15;64.88
76590;BME280;65471;55.908;37.880;2023-03-23T01:23:39;99504.25;;;5.15;64.74
76590;BME280;65471;55.908;37.880;2023-03-23T01:26:06;99497.66;;;5.18;64.53
76590;BME280;65471;55.908;37.880;2023-03-23T01:28:33;99496.00;;;5.17;64.20
76590;BME280;65471;55.908;37.880;2023-03-23T01:31:03;99486.13;;;5.17;64.42
76590;BME280;65471;55.908;37.880;2023-03-23T01:33:29;99487.13;;;5.16;64.45
76590;BME280;65471;55.908;37.880;2023-03-23T01:35:55;99482.78;;;5.15;64.37
76590;BME280;65471;55.908;37.880;2023-03-23T01:38:20;99483.22;;;5.12;64.22
76590;BME280;65471;55.908;37.880;2023-03-23T01:40:46;99474.16;;;5.13;64.89
76590;BME280;65471;55.908;37.880;2023-03-23T01:43:12;99474.34;;;5.12;64.70
76590;BME280;65471;55.908;37.880;2023-03-23T01:45:38;99484.22;;;5.11;64.52
76590;BME280;65471;55.908;37.880;2023-03-23T01:48:07;99485.28;;;5.10;64.86
76590;BME280;65471;55.908;37.880;2023-03-23T01:50:36;99476.19;;;5.11;64.71
76590;BME280;65471;55.908;37.880;2023-03-23T01:53:03;99473.31;;;5.13;64.64
76590;BME280;65471;55.908;37.880;2023-03-23T01:55:31;99468.59;;;5.15;64.87
76590;BME280;65471;55.908;37.880;2023-03-23T01:57:57;99469.00;;;5.12;64.58
76590;BME280;65471;55.908;37.880;2023-03-23T02:00:23;99480.53;;;5.12;64.64
76590;BME280;65471;55.908;37.880;2023-03-23T02:02:49;99473.72;;;5.10;64.43
76590;BME280;65471;55.908;37.880;2023-03-23T02:05:23;99468.78;;;5.07;64.75
76590;BME280;65471;55.908;37.880;2023-03-23T02:07:49;99460.31;;;5.03;65.09
76590;BME280;65471;55.908;37.880;2023-03-23T02:10:15;99466.91;;;5.00;65.38
76590;BME280;65471;55.908;37.880;2023-03-23T02:12:41;99458.84;;;4.94;64.98
76590;BME280;65471;55.908;37.880;2023-03-23T02:15:06;99454.31;;;4.94;65.18
76590;BME280;65471;55.908;37.880;2023-03-23T02:18:16;99453.09;;;4.97;65.47
76590;BME280;65471;55.908;37.880;2023-03-23T02:20:24;99446.91;;;4.96;65.38
76590;BME280;65471;55.908;37.880;2023-03-23T02:23:12;99448.56;;;4.97;65.52
76590;BME280;65471;55.908;37.880;2023-03-23T02:41:02;99441.91;;;4.73;65.81
76590;BME280;65471;55.908;37.880;2023-03-23T02:43:30;99437.56;;;4.72;65.84
76590;BME280;65471;55.908;37.880;2023-03-23T02:45:56;99447.66;;;4.70;66.29
76590;BME280;65471;55.908;37.880;2023-03-23T02:48:24;99443.53;;;4.68;66.47
76590;BME280;65471;55.908;37.880;2023-03-23T02:50:52;99446.44;;;4.66;66.27
76590;BME280;65471;55.908;37.880;2023-03-23T02:53:19;99441.25;;;4.64;66.59
76590;BME280;65471;55.908;37.880;2023-03-23T02:55:46;99448.47;;;4.64;66.88
76590;BME280;65471;55.908;37.880;2023-03-23T02:58:13;99451.34;;;4.62;66.50
76590;BME280;65471;55.908;37.880;2023-03-23T03:00:39;99444.75;;;4.58;67.03
76590;BME280;65471;55.908;37.880;2023-03-23T03:03:05;99440.81;;;4.54;66.49
76590;BME280;65471;55.908;37.880;2023-03-23T03:10:50;99439.75;;;4.42;67.28
76590;BME280;65471;55.908;37.880;2023-03-23T03:15:57;99435.53;;;4.26;67.19
76590;BME280;65471;55.908;37.880;2023-03-23T03:18:48;99430.78;;;4.21;67.72
76590;BME280;65471;55.908;37.880;2023-03-23T03:21:12;99433.88;;;4.18;67.61
76590;BME280;65471;55.908;37.880;2023-03-23T03:23:40;99423.78;;;4.13;67.55
76590;BME280;65471;55.908;37.880;2023-03-23T03:26:07;99425.38;;;4.08;67.71
76590;BME280;65471;55.908;37.880;2023-03-23T03:28:35;99430.50;;;4.03;67.97
76590;BME280;65471;55.908;37.880;2023-03-23T03:31:02;99431.28;;;3.96;67.43
76590;BME280;65471;55.908;37.880;2023-03-23T03:33:29;99424.69;;;3.92;67.59
76590;BME280;65471;55.908;37.880;2023-03-23T03:36:00;99420.94;;;3.87;68.12
76590;BME280;65471;55.908;37.880;2023-03-23T03:38:26;99425.84;;;3.83;68.26
76590;BME280;65471;55.908;37.880;2023-03-23T03:40:52;99415.94;;;3.77;68.58
76590;BME280;65471;55.908;37.880;2023-03-23T03:43:18;99421.69;;;3.74;68.59
76590;BME280;65471;55.908;37.880;2023-03-23T03:45:43;99428.69;;;3.75;68.53
76590;BME280;65471;55.908;37.880;2023-03-23T03:48:09;99421.25;;;3.70;68.74
76590;BME280;65471;55.908;37.880;2023-03-23T03:50:35;99418.75;;;3.69;69.12
76590;BME280;65471;55.908;37.880;2023-03-23T03:53:01;99419.59;;;3.69;68.29
76590;BME280;65471;55.908;37.880;2023-03-23T03:55:26;99420.63;;;3.68;68.47
76590;BME280;65471;55.908;37.880;2023-03-23T03:57:53;99418.34;;;3.65;68.76
76590;BME280;65471;55.908;37.880;2023-03-23T04:00:20;99420.56;;;3.61;68.90
76590;BME280;65471;55.908;37.880;2023-03-23T04:02:46;99417.47;;;3.58;68.64
76590;BME280;65471;55.908;37.880;2023-03-23T04:05:20;99401.78;;;3.55;69.05
76590;BME280;65471;55.908;37.880;2023-03-23T04:07:46;99410.47;;;3.57;69.89
76590;BME280;65471;55.908;37.880;2023-03-23T04:10:14;99414.16;;;3.56;69.27
76590;BME280;65471;55.908;37.880;2023-03-23T04:12:40;99409.00;;;3.54;70.01
76590;BME280;65471;55.908;37.880;2023-03-23T04:15:06;99412.50;;;3.55;69.22
76590;BME280;65471;55.908;37.880;2023-03-23T04:17:33;99407.13;;;3.55;70.17
76590;BME280;65471;55.908;37.880;2023-03-23T04:19:59;99406.78;;;3.58;69.68
76590;BME280;65471;55.908;37.880;2023-03-23T04:22:25;99404.53;;;3.61;70.10
76590;BME280;65471;55.908;37.880;2023-03-23T04:25:00;99409.47;;;3.65;70.05
76590;BME280;65471;55.908;37.880;2023-03-23T04:27:30;99403.72;;;3.68;70.54
76590;BME280;65471;55.908;37.880;2023-03-23T04:29:56;99402.31;;;3.72;70.93
76590;BME280;65471;55.908;37.880;2023-03-23T04:32:26;99403.59;;;3.76;70.52
76590;BME280;65471;55.908;37.880;2023-03-23T04:34:57;99395.00;;;3.80;71.05
76590;BME280;65471;55.908;37.880;2023-03-23T04:37:23;99399.53;;;3.87;71.18
76590;BME280;65471;55.908;37.880;2023-03-23T04:39:56;99409.44;;;3.93;71.48
76590;BME280;65471;55.908;37.880;2023-03-23T04:42:27;99411.16;;;4.01;71.13
76590;BME280;65471;55.908;37.880;2023-03-23T04:44:52;99405.81;;;4.07;70.91
76590;BME280;65471;55.908;37.880;2023-03-23T04:47:19;99399.28;;;4.17;71.58
76590;BME280;65471;55.908;37.880;2023-03-23T04:49:45;99397.47;;;4.24;71.40
76590;BME280;65471;55.908;37.880;2023-03-23T04:52:11;99402.25;;;4.35;71.18
76590;BME280;65471;55.908;37.880;2023-03-23T04:54:36;99402.66;;;4.39;71.32
76590;BME280;65471;55.908;37.880;2023-03-23T04:57:02;99410.72;;;4.45;71.00
76590;BME280;65471;55.908;37.880;2023-03-23T04:59:28;99404.53;;;4.52;70.86
76590;BME280;65471;55.908;37.880;2023-03-23T05:01:56;99406.44;;;4.58;70.55
76590;BME280;65471;55.908;37.880;2023-03-23T05:04:22;99395.53;;;4.66;70.95
76590;BME280;65471;55.908;37.880;2023-03-23T05:06:48;99401.75;;;4.73;70.20
76590;BME280;65471;55.908;37.880;2023-03-23T05:09:13;99406.06;;;4.81;70.29
76590;BME280;65471;55.908;37.880;2023-03-23T05:11:39;99419.88;;;4.91;70.21
76590;BME280;65471;55.908;37.880;2023-03-23T05:14:04;99407.31;;;4.98;69.89
76590;BME280;65471;55.908;37.880;2023-03-23T05:16:30;99417.84;;;5.07;69.41
76590;BME280;65471;55.908;37.880;2023-03-23T05:18:56;99414.34;;;5.13;69.40
76590;BME280;65471;55.908;37.880;2023-03-23T05:21:22;99409.00;;;5.19;69.15
76590;BME280;65471;55.908;37.880;2023-03-23T05:23:48;99409.44;;;5.23;69.51
76590;BME280;65471;55.908;37.880;2023-03-23T05:26:22;99409.81;;;5.27;69.11
76590;BME280;65471;55.908;37.880;2023-03-23T05:28:54;99411.06;;;5.31;69.06
76590;BME280;65471;55.908;37.880;2023-03-23T05:31:21;99410.88;;;5.39;68.70
76590;BME280;65471;55.908;37.880;2023-03-23T05:33:47;99420.53;;;5.47;68.59
76590;BME280;65471;55.908;37.880;2023-03-23T05:36:12;99416.41;;;5.51;68.52
76590;BME280;65471;55.908;37.880;2023-03-23T05:38:41;99413.94;;;5.56;68.28
76590;BME280;65471;55.908;37.880;2023-03-23T05:41:13;99405.28;;;5.61;68.13
76590;BME280;65471;55.908;37.880;2023-03-23T05:43:39;99400.72;;;5.68;67.83
76590;BME280;65471;55.908;37.880;2023-03-23T05:46:05;99406.69;;;5.77;67.88
76590;BME280;65471;55.908;37.880;2023-03-23T05:48:30;99398.63;;;5.83;67.88
76590;BME280;65471;55.908;37.880;2023-03-23T05:50:56;99405.84;;;5.90;67.28
76590;BME280;65471;55.908;37.880;2023-03-23T05:53:22;99404.81;;;5.97;67.31
76590;BME280;65471;55.908;37.880;2023-03-23T05:55:48;99408.91;;;6.07;67.53
76590;BME280;65471;55.908;37.880;2023-03-23T05:58:13;99401.88;;;6.12;66.78
76590;BME280;65471;55.908;37.880;2023-03-23T06:00:39;99412.81;;;6.17;66.79
76590;BME280;65471;55.908;37.880;2023-03-23T06:03:05;99407.03;;;6.20;66.59
76590;BME280;65471;55.908;37.880;2023-03-23T06:05:31;99399.16;;;6.26;66.66
76590;BME280;65471;55.908;37.880;2023-03-23T06:07:58;99411.28;;;6.35;66.64
76590;BME280;65471;55.908;37.880;2023-03-23T06:10:24;99411.28;;;6.42;66.04
76590;BME280;65471;55.908;37.880;2023-03-23T06:12:50;99412.72;;;6.44;65.67
76590;BME280;65471;55.908;37.880;2023-03-23T06:15:16;99409.16;;;6.50;65.60
76590;BME280;65471;55.908;37.880;2023-03-23T06:17:42;99407.50;;;6.56;65.31
76590;BME280;65471;55.908;37.880;2023-03-23T06:20:08;99412.63;;;6.64;65.15
76590;BME280;65471;55.908;37.880;2023-03-23T06:22:38;99401.81;;;6.71;64.98
76590;BME280;65471;55.908;37.880;2023-03-23T06:25:08;99411.06;;;6.82;65.01
76590;BME280;65471;55.908;37.880;2023-03-23T06:27:34;99402.53;;;6.91;64.70
76590;BME280;65471;55.908;37.880;2023-03-23T06:30:00;99407.66;;;7.00;64.42
76590;BME280;65471;55.908;37.880;2023-03-23T06:32:26;99398.25;;;7.09;64.32
76590;BME280;65471;55.908;37.880;2023-03-23T06:34:53;99403.16;;;7.19;63.67
76590;BME280;65471;55.908;37.880;2023-03-23T06:37:19;99398.78;;;7.24;63.25
76590;BME280;65471;55.908;37.880;2023-03-23T06:39:46;99393.41;;;7.24;63.22
76590;BME280;65471;55.908;37.880;2023-03-23T06:42:11;99401.63;;;7.30;62.89
76590;BME280;65471;55.908;37.880;2023-03-23T06:44:37;99396.41;;;7.35;62.61
76590;BME280;65471;55.908;37.880;2023-03-23T06:47:03;99404.03;;;7.38;62.52
76590;BME280;65471;55.908;37.880;2023-03-23T06:49:29;99397.41;;;7.40;62.37
76590;BME280;65471;55.908;37.880;2023-03-23T06:51:54;99397.94;;;7.49;61.82
76590;BME280;65471;55.908;37.880;2023-03-23T06:54:21;99384.44;;;7.56;62.10
76590;BME280;65471;55.908;37.880;2023-03-23T06:56:47;99380.03;;;7.62;61.69
76590;BME280;65471;55.908;37.880;2023-03-23T06:59:12;99377.69;;;7.65;61.66
76590;BME280;65471;55.908;37.880;2023-03-23T07:01:38;99385.13;;;7.70;61.80
76590;BME280;65471;55.908;37.880;2023-03-23T07:04:04;99387.16;;;7.74;61.44
76590;BME280;65471;55.908;37.880;2023-03-23T07:06:30;99375.47;;;7.81;61.21
76590;BME280;65471;55.908;37.880;2023-03-23T07:08:56;99377.53;;;7.85;61.01
76590;BME280;65471;55.908;37.880;2023-03-23T07:11:21;99381.63;;;7.88;60.84
76590;BME280;65471;55.908;37.880;2023-03-23T07:13:47;99379.31;;;7.91;60.90
76590;BME280;65471;55.908;37.880;2023-03-23T07:16:15;99368.38;;;7.86;60.88
76590;BME280;65471;55.908;37.880;2023-03-23T07:18:41;99377.53;;;7.85;60.81
76590;BME280;65471;55.908;37.880;2023-03-23T07:21:06;99379.75;;;7.88;60.25
76590;BME280;65471;55.908;37.880;2023-03-23T07:23:32;99371.25;;;7.91;60.00
76590;BME280;65471;55.908;37.880;2023-03-23T07:25:57;99374.97;;;7.90;60.10
76590;BME280;65471;55.908;37.880;2023-03-23T07:28:23;99381.56;;;7.94;60.27
76590;BME280;65471;55.908;37.880;2023-03-23T07:30:48;99376.31;;;8.00;60.39
76590;BME280;65471;55.908;37.880;2023-03-23T07:33:14;99379.75;;;8.07;60.14
76590;BME280;65471;55.908;37.880;2023-03-23T07:35:42;99370.53;;;8.15;59.87
76590;BME280;65471;55.908;37.880;2023-03-23T07:38:08;99371.34;;;8.15;60.00
76590;BME280;65471;55.908;37.880;2023-03-23T07:40:34;99373.00;;;8.16;59.81
76590;BME280;65471;55.908;37.880;2023-03-23T07:42:59;99373.41;;;8.20;59.90
76590;BME280;65471;55.908;37.880;2023-03-23T07:45:26;99355.13;;;8.22;59.41
76590;BME280;65471;55.908;37.880;2023-03-23T07:47:52;99357.75;;;8.28;59.49
76590;BME280;65471;55.908;37.880;2023-03-23T07:50:18;99351.44;;;8.35;59.55
76590;BME280;65471;55.908;37.880;2023-03-23T07:52:47;99352.41;;;8.40;59.04
76590;BME280;65471;55.908;37.880;2023-03-23T07:55:13;99349.88;;;8.45;58.65
76590;BME280;65471;55.908;37.880;2023-03-23T07:57:48;99348.16;;;8.51;58.30
76590;BME280;65471;55.908;37.880;2023-03-23T08:00:15;99343.00;;;8.50;58.09
76590;BME280;65471;55.908;37.880;2023-03-23T08:02:47;99346.16;;;8.46;58.61
76590;BME280;65471;55.908;37.880;2023-03-23T08:05:14;99351.31;;;8.48;58.44
76590;BME280;65471;55.908;37.880;2023-03-23T08:07:40;99349.19;;;8.50;58.24
76590;BME280;65471;55.908;37.880;2023-03-23T08:10:06;99347.69;;;8.54;58.30
76590;BME280;65471;55.908;37.880;2023-03-23T08:12:36;99344.31;;;8.59;58.71
76590;BME280;65471;55.908;37.880;2023-03-23T08:15:02;99341.06;;;8.69;58.14
76590;BME280;65471;55.908;37.880;2023-03-23T08:17:28;99343.19;;;8.78;57.43
76590;BME280;65471;55.908;37.880;2023-03-23T08:19:53;99341.91;;;8.81;57.49
76590;BME280;65471;55.908;37.880;2023-03-23T08:22:19;99341.69;;;8.83;57.24
76590;BME280;65471;55.908;37.880;2023-03-23T08:24:46;99338.91;;;8.89;56.75
76590;BME280;65471;55.908;37.880;2023-03-23T08:27:11;99346.63;;;8.97;56.87
76590;BME280;65471;55.908;37.880;2023-03-23T08:29:37;99329.53;;;9.04;56.79
76590;BME280;65471;55.908;37.880;2023-03-23T08:32:04;99327.41;;;9.06;56.46
76590;BME280;65471;55.908;37.880;2023-03-23T08:34:29;99339.97;;;9.12;56.29
76590;BME280;65471;55.908;37.880;2023-03-23T08:36:56;99330.59;;;9.14;56.12
76590;BME280;65471;55.908;37.880;2023-03-23T08:39:21;99321.59;;;9.21;55.96
76590;BME280;65471;55.908;37.880;2023-03-23T08:41:48;99319.59;;;9.28;56.27
76590;BME280;65471;55.908;37.880;2023-03-23T08:44:14;99300.00;;;9.32;55.66
76590;BME280;65471;55.908;37.880;2023-03-23T08:46:40;99308.56;;;9.29;55.56
76590;BME280;65471;55.908;37.880;2023-03-23T08:49:06;99294.69;;;9.38;55.41
76590;BME280;65471;55.908;37.880;2023-03-23T08:51:32;99307.59;;;9.47;54.94
76590;BME280;65471;55.908;37.880;2023-03-23T08:53:57;99302.56;;;9.51;54.52
76590;BME280;65471;55.908;37.880;2023-03-23T08:56:24;99292.47;;;9.58;54.40
76590;BME280;65471;55.908;37.880;2023-03-23T08:58:49;99290.44;;;9.65;53.86
76590;BME280;65471;55.908;37.880;2023-03-23T09:01:15;99281.88;;;9.68;54.22
76590;BME280;65471;55.908;37.880;2023-03-23T09:03:41;99271.66;;;9.71;53.93
76590;BME280;65471;55.908;37.880;2023-03-23T09:06:07;99272.91;;;9.80;53.58
76590;BME280;65471;55.908;37.880;2023-03-23T09:08:33;99267.72;;;9.90;53.65
76590;BME280;65471;55.908;37.880;2023-03-23T09:11:01;99268.16;;;9.99;53.14
76590;BME280;65471;55.908;37.880;2023-03-23T09:13:27;99269.06;;;10.05;53.05
76590;BME280;65471;55.908;37.880;2023-03-23T09:15:53;99259.69;;;10.07;53.13
76590;BME280;65471;55.908;37.880;2023-03-23T09:18:18;99264.03;;;10.08;52.97
76590;BME280;65471;55.908;37.880;2023-03-23T09:20:44;99268.22;;;10.16;52.77
76590;BME280;65471;55.908;37.880;2023-03-23T09:23:10;99254.44;;;10.29;52.72
76590;BME280;65471;55.908;37.880;2023-03-23T09:25:38;99249.88;;;10.47;51.92
76590;BME280;65471;55.908;37.880;2023-03-23T09:28:03;99245.66;;;10.68;52.19
76590;BME280;65471;55.908;37.880;2023-03-23T09:30:30;99247.25;;;11.03;51.01
76590;BME280;65471;55.908;37.880;2023-03-23T09:32:56;99241.25;;;11.35;50.61
76590;BME280;65471;55.908;37.880;2023-03-23T09:35:22;99232.06;;;12.02;48.88
76590;BME280;65471;55.908;37.880;2023-03-23T09:37:48;99226.63;;;12.57;47.81
76590;BME280;65471;55.908;37.880;2023-03-23T09:40:19;99219.34;;;13.00;47.57
76590;BME280;65471;55.908;37.880;2023-03-23T09:50:41;99204.56;;;13.87;42.91
76590;BME280;65471;55.908;37.880;2023-03-23T09:55:37;99202.94;;;13.96;42.98
76590;BME280;65471;55.908;37.880;2023-03-23T09:58:16;99193.22;;;14.15;42.53
76590;BME280;65471;55.908;37.880;2023-03-23T10:00:44;99194.81;;;14.06;42.41
76590;BME280;65471;55.908;37.880;2023-03-23T10:03:19;99197.50;;;13.91;42.60
76590;BME280;65471;55.908;37.880;2023-03-23T10:08:19;99186.81;;;13.58;42.51
76590;BME280;65471;55.908;37.880;2023-03-23T10:13:25;99188.91;;;14.45;42.02
76590;BME280;65471;55.908;37.880;2023-03-23T10:15:55;99176.31;;;15.16;40.63
76590;BME280;65471;55.908;37.880;2023-03-23T10:21:00;99171.22;;;15.60;40.21
76590;BME280;65471;55.908;37.880;2023-03-23T10:26:08;99165.38;;;15.27;38.70
76590;BME280;65471;55.908;37.880;2023-03-23T10:28:39;99157.31;;;14.91;39.83
76590;BME280;65471;55.908;37.880;2023-03-23T10:31:11;99152.19;;;14.48;40.35
76590;BME280;65471;55.908;37.880;2023-03-23T10:33:42;99162.47;;;14.05;41.14
76590;BME280;65471;55.908;37.880;2023-03-23T10:39:04;99160.06;;;14.65;40.92
76590;BME280;65471;55.908;37.880;2023-03-23T10:41:33;99154.84;;;14.99;39.89
76590;BME280;65471;55.908;37.880;2023-03-23T10:43:58;99164.41;;;14.81;40.18
76590;BME280;65471;55.908;37.880;2023-03-23T10:49:15;99165.47;;;14.55;40.60
76590;BME280;65471;55.908;37.880;2023-03-23T10:51:43;99157.88;;;14.26;41.18
76590;BME280;65471;55.908;37.880;2023-03-23T10:54:10;99165.47;;;14.08;41.61
76590;BME280;65471;55.908;37.880;2023-03-23T10:56:39;99164.34;;;13.78;41.86
76590;BME280;65471;55.908;37.880;2023-03-23T10:59:18;99155.31;;;13.68;42.32
76590;BME280;65471;55.908;37.880;2023-03-23T11:01:47;99151.78;;;13.57;42.50
76590;BME280;65471;55.908;37.880;2023-03-23T11:04:14;99166.41;;;13.45;42.55
76590;BME280;65471;55.908;37.880;2023-03-23T11:06:43;99160.31;;;13.23;42.79
76590;BME280;65471;55.908;37.880;2023-03-23T11:09:11;99155.06;;;13.11;43.03
76590;BME280;65471;55.908;37.880;2023-03-23T11:11:38;99148.69;;;12.85;43.57
76590;BME280;65471;55.908;37.880;2023-03-23T11:16:42;99154.00;;;12.69;44.19
76590;BME280;65471;55.908;37.880;2023-03-23T11:19:14;99155.91;;;12.69;44.15
76590;BME280;65471;55.908;37.880;2023-03-23T11:21:40;99149.13;;;12.66;44.15
76590;BME280;65471;55.908;37.880;2023-03-23T11:24:07;99155.09;;;12.68;44.49
76590;BME280;65471;55.908;37.880;2023-03-23T11:26:34;99157.50;;;12.65;44.76
76590;BME280;65471;55.908;37.880;2023-03-23T11:31:35;99146.50;;;12.82;44.33
76590;BME280;65471;55.908;37.880;2023-03-23T11:38:56;99150.72;;;12.62;43.79
76590;BME280;65471;55.908;37.880;2023-03-23T11:41:23;99155.75;;;12.48;44.25
76590;BME280;65471;55.908;37.880;2023-03-23T11:43:50;99156.47;;;12.33;44.61
76590;BME280;65471;55.908;37.880;2023-03-23T11:48:58;99163.53;;;12.34;44.89
76590;BME280;65471;55.908;37.880;2023-03-23T11:56:36;99151.78;;;12.23;45.39
76590;BME280;65471;55.908;37.880;2023-03-23T11:59:03;99150.56;;;12.09;45.46
76590;BME280;65471;55.908;37.880;2023-03-23T12:04:20;99150.03;;;11.85;45.71
76590;BME280;65471;55.908;37.880;2023-03-23T12:43:09;99131.13;;;11.18;48.02
76590;BME280;65471;55.908;37.880;2023-03-23T12:45:47;99123.59;;;11.20;48.28
76590;BME280;65471;55.908;37.880;2023-03-23T12:48:16;99126.09;;;11.27;48.50
76590;BME280;65471;55.908;37.880;2023-03-23T12:53:26;99121.25;;;11.29;48.13
76590;BME280;65471;55.908;37.880;2023-03-23T12:58:29;99117.59;;;11.18;48.78
76590;BME280;65471;55.908;37.880;2023-03-23T13:05:53;99114.59;;;11.15;48.76
76590;BME280;65471;55.908;37.880;2023-03-23T13:08:36;99103.81;;;11.20;48.96
76590;BME280;65471;55.908;37.880;2023-03-23T13:11:04;99096.53;;;11.20;48.90
76590;BME280;65471;55.908;37.880;2023-03-23T13:18:51;99096.53;;;11.20;49.29
76590;BME280;65471;55.908;37.880;2023-03-23T13:21:30;99096.72;;;11.14;49.17
76590;BME280;65471;55.908;37.880;2023-03-23T13:24:08;99088.59;;;11.14;49.14
76590;BME280;65471;55.908;37.880;2023-03-23T13:26:39;99083.63;;;11.05;49.32
76590;BME280;65471;55.908;37.880;2023-03-23T13:29:24;99087.97;;;11.07;49.38
76590;BME280;65471;55.908;37.880;2023-03-23T13:31:50;99087.81;;;11.13;49.67
76590;BME280;65471;55.908;37.880;2023-03-23T13:37:09;99078.59;;;11.14;49.52
76590;BME280;65471;55.908;37.880;2023-03-23T13:39:34;99087.22;;;11.11;49.60
76590;BME280;65471;55.908;37.880;2023-03-23T13:44:43;99084.50;;;11.11;49.60
76590;BME280;65471;55.908;37.880;2023-03-23T13:49:55;99084.00;;;11.14;49.47
76590;BME280;65471;55.908;37.880;2023-03-23T13:57:38;99066.34;;;11.07;49.97
76590;BME280;65471;55.908;37.880;2023-03-23T14:02:58;99060.47;;;10.93;50.40
76590;BME280;65471;55.908;37.880;2023-03-23T14:05:38;99050.59;;;10.81;50.64
76590;BME280;65471;55.908;37.880;2023-03-23T14:10:34;99049.16;;;10.74;50.91
76590;BME280;65471;55.908;37.880;2023-03-23T14:13:01;99054.44;;;10.63;51.16
76590;BME280;65471;55.908;37.880;2023-03-23T14:15:28;99044.63;;;10.57;50.88
76590;BME280;65471;55.908;37.880;2023-03-23T14:17:53;99054.06;;;10.55;51.19
76590;BME280;65471;55.908;37.880;2023-03-23T14:20:40;99059.38;;;10.49;51.37
76590;BME280;65471;55.908;37.880;2023-03-23T14:23:05;99057.69;;;10.43;51.69
76590;BME280;65471;55.908;37.880;2023-03-23T14:25:30;99047.59;;;10.39;51.71
76590;BME280;65471;55.908;37.880;2023-03-23T14:27:59;99052.44;;;10.36;51.59
76590;BME280;65471;55.908;37.880;2023-03-23T14:30:26;99052.09;;;10.33;51.83
76590;BME280;65471;55.908;37.880;2023-03-23T14:32:53;99050.13;;;10.28;52.27
76590;BME280;65471;55.908;37.880;2023-03-23T14:35:27;99053.41;;;10.30;52.66
76590;BME280;65471;55.908;37.880;2023-03-23T14:37:54;99054.78;;;10.33;52.15
76590;BME280;65471;55.908;37.880;2023-03-23T14:40:20;99056.69;;;10.32;52.43
76590;BME280;65471;55.908;37.880;2023-03-23T14:42:46;99047.19;;;10.30;52.52
76590;BME280;65471;55.908;37.880;2023-03-23T14:45:14;99047.34;;;10.23;52.37
76590;BME280;65471;55.908;37.880;2023-03-23T14:47:44;99046.94;;;10.14;52.70
76590;BME280;65471;55.908;37.880;2023-03-23T14:50:27;99031.97;;;10.07;53.20
76590;BME280;65471;55.908;37.880;2023-03-23T14:53:02;99015.88;;;9.95;53.53
76590;BME280;65471;55.908;37.880;2023-03-23T14:55:27;99018.88;;;9.98;53.75
76590;BME280;65471;55.908;37.880;2023-03-23T14:58:04;99021.59;;;9.98;53.73
76590;BME280;65471;55.908;37.880;2023-03-23T15:00:33;99025.34;;;9.97;54.10
76590;BME280;65471;55.908;37.880;2023-03-23T15:03:00;99033.19;;;9.99;54.26
76590;BME280;65471;55.908;37.880;2023-03-23T15:05:29;99027.00;;;9.98;54.04
76590;BME280;65471;55.908;37.880;2023-03-23T15:07:59;99029.13;;;9.96;54.38
76590;BME280;65471;55.908;37.880;2023-03-23T15:10:25;99038.53;;;9.94;54.07
76590;BME280;65471;55.908;37.880;2023-03-23T15:12:51;99037.94;;;9.92;54.65
76590;BME280;65471;55.908;37.880;2023-03-23T15:17:51;99046.22;;;9.85;54.66
76590;BME280;65471;55.908;37.880;2023-03-23T15:20:27;99055.38;;;9.84;55.00
76590;BME280;65471;55.908;37.880;2023-03-23T15:22:53;99050.63;;;9.74;54.70
76590;BME280;65471;55.908;37.880;2023-03-23T15:27:54;99043.81;;;9.72;55.63